createdAt,value
2018-06-25T00:01:13.680Z,3.90
2018-06-25T00:03:44.197Z,4.55
2018-06-25T00:06:14.848Z,3.75
2018-06-25T00:08:45.359Z,3.60
2018-06-25T00:11:15.877Z,3.70
2018-06-25T00:13:46.344Z,4.00
2018-06-25T00:16:16.834Z,4.30
2018-06-25T00:18:47.302Z,3.80
2018-06-25T00:21:17.837Z,3.80
2018-06-25T00:23:49.031Z,4.17
2018-06-25T00:26:19.193Z,3.65
2018-06-25T00:28:49.470Z,3.85
2018-06-25T00:31:19.864Z,3.40
2018-06-25T00:33:51.227Z,4.03
2018-06-25T00:36:21.945Z,3.75
2018-06-25T00:38:52.537Z,3.58
2018-06-25T00:41:23.010Z,3.00
2018-06-25T00:43:53.488Z,3.40
2018-06-25T00:46:23.914Z,3.35
2018-06-25T00:48:54.295Z,3.30
2018-06-25T00:51:24.732Z,3.40
2018-06-25T00:53:55.178Z,3.45
2018-06-25T00:56:25.654Z,3.40
2018-06-25T01:00:10.600Z,3.37
2018-06-25T01:02:41.074Z,3.10
2018-06-25T01:05:11.433Z,3.50
2018-06-25T01:07:41.852Z,3.10
2018-06-25T01:10:12.728Z,3.22
2018-06-25T01:12:43.266Z,3.50
2018-06-25T01:15:13.610Z,3.60
2018-06-25T01:17:44.646Z,2.92
2018-06-25T01:20:15.085Z,3.98
2018-06-25T01:22:45.549Z,3.50
2018-06-25T01:25:16.016Z,3.20
2018-06-25T01:27:46.620Z,3.25
2018-06-25T01:30:17.653Z,3.42
2018-06-25T01:32:48.124Z,3.30
2018-06-25T01:35:18.583Z,3.08
2018-06-25T01:37:50.292Z,3.77
2018-06-25T01:40:20.693Z,3.30
2018-06-25T01:42:51.110Z,3.60
2018-06-25T01:45:21.258Z,3.20
2018-06-25T01:47:52.448Z,3.75
2018-06-25T01:50:23.529Z,3.90
2018-06-25T01:52:53.940Z,3.27
2018-06-25T01:55:24.383Z,3.15
2018-06-25T01:57:54.804Z,3.67
2018-06-25T02:00:25.332Z,4.00
2018-06-25T02:02:55.460Z,3.37
2018-06-25T02:05:25.856Z,3.75
2018-06-25T02:07:56.240Z,3.35
2018-06-25T02:10:26.693Z,3.70
2018-06-25T02:12:57.242Z,3.55
2018-06-25T02:15:27.672Z,4.28
2018-06-25T02:17:57.836Z,3.20
2018-06-25T02:20:28.151Z,3.70
2018-06-25T02:22:58.523Z,3.47
2018-06-25T02:25:28.937Z,3.10
2018-06-25T02:27:59.261Z,3.40
2018-06-25T02:30:29.699Z,3.55
2018-06-25T02:33:00.138Z,3.50
2018-06-25T02:35:30.475Z,3.52
2018-06-25T02:38:00.715Z,2.90
2018-06-25T02:40:31.743Z,2.70
2018-06-25T02:43:01.917Z,3.17
2018-06-25T02:45:32.255Z,2.65
2018-06-25T02:48:03.147Z,2.55
2018-06-25T02:50:33.703Z,2.75
2018-06-25T02:53:04.119Z,2.85
2018-06-25T02:55:34.720Z,3.40
2018-06-25T02:58:04.845Z,3.30
2018-06-25T03:00:35.147Z,3.05
2018-06-25T03:03:05.805Z,3.05
2018-06-25T03:05:36.333Z,2.50
2018-06-25T03:08:06.917Z,3.17
2018-06-25T03:10:37.382Z,3.25
2018-06-25T03:13:07.930Z,3.00
2018-06-25T03:15:38.363Z,2.87
2018-06-25T03:18:08.758Z,2.98
2018-06-25T03:20:39.254Z,2.98
2018-06-25T03:23:09.786Z,3.30
2018-06-25T03:25:40.186Z,2.90
2018-06-25T03:28:10.654Z,2.92
2018-06-25T03:33:51.541Z,2.65
2018-06-25T03:36:22.080Z,2.90
2018-06-25T03:38:52.692Z,2.80
2018-06-25T03:41:24.223Z,2.80
2018-06-25T03:43:56.124Z,3.22
2018-06-25T03:46:26.593Z,2.95
2018-06-25T03:48:57.069Z,2.98
2018-06-25T03:51:32.390Z,3.02
2018-06-25T03:54:02.936Z,3.25
2018-06-25T03:56:33.423Z,3.27
2018-06-25T03:59:03.968Z,3.12
2018-06-25T04:01:34.539Z,3.87
2018-06-25T04:10:11.519Z,2.65
2018-06-25T04:12:44.309Z,3.30
2018-06-25T04:15:14.835Z,3.50
2018-06-25T04:17:45.355Z,3.30
2018-06-25T04:22:52.474Z,2.70
2018-06-25T04:25:25.285Z,2.60
2018-06-25T04:27:59.760Z,3.30
2018-06-25T04:30:31.922Z,2.52
2018-06-25T04:33:07.290Z,3.00
2018-06-25T04:35:40.551Z,2.40
2018-06-25T04:38:11.135Z,2.87
2018-06-25T04:40:51.332Z,2.67
2018-06-25T04:43:29.563Z,2.70
2018-06-25T04:46:12.497Z,2.77
2018-06-25T04:48:48.033Z,2.90
2018-06-25T04:51:21.306Z,2.55
2018-06-25T04:53:54.489Z,2.87
2018-06-25T04:56:28.998Z,2.87
2018-06-25T05:01:51.442Z,2.62
2018-06-25T05:04:24.851Z,2.65
2018-06-25T05:06:58.201Z,2.80
2018-06-25T05:09:29.121Z,2.98
2018-06-25T05:12:05.539Z,2.90
2018-06-25T05:14:38.332Z,2.80
2018-06-25T05:17:09.711Z,2.58
2018-06-25T05:19:40.286Z,2.65
2018-06-25T05:22:11.599Z,2.60
2018-06-25T05:24:42.169Z,2.72
2018-06-25T05:27:12.646Z,2.65
2018-06-25T05:29:43.073Z,2.80
2018-06-25T05:32:13.556Z,2.55
2018-06-25T05:34:44.123Z,2.67
2018-06-25T05:37:15.426Z,2.47
2018-06-25T05:39:46.459Z,3.12
2018-06-25T05:42:23.920Z,2.72
2018-06-25T05:44:54.405Z,2.58
2018-06-25T05:47:24.872Z,2.52
2018-06-25T05:49:56.497Z,2.80
2018-06-25T05:52:27.199Z,2.70
2018-06-25T05:54:58.441Z,3.15
2018-06-25T05:57:28.898Z,2.90
2018-06-25T05:59:59.509Z,2.42
2018-06-25T06:02:29.988Z,2.67
2018-06-25T06:05:00.545Z,3.00
2018-06-25T06:07:30.892Z,2.20
2018-06-25T06:10:01.942Z,2.87
2018-06-25T06:12:33.104Z,3.12
2018-06-25T06:15:03.653Z,3.67
2018-06-25T06:17:34.217Z,3.45
2018-06-25T06:20:04.745Z,2.70
2018-06-25T06:22:35.283Z,2.60
2018-06-25T06:25:05.865Z,2.60
2018-06-25T06:27:44.814Z,3.10
2018-06-25T06:30:15.602Z,3.65
2018-06-25T06:32:47.085Z,3.62
2018-06-25T06:35:17.602Z,3.20
2018-06-25T06:37:48.052Z,3.55
2018-06-25T06:40:18.445Z,3.00
2018-06-25T06:42:48.954Z,3.37
2018-06-25T06:45:19.485Z,3.33
2018-06-25T06:47:49.945Z,3.58
2018-06-25T06:50:20.492Z,3.22
2018-06-25T06:52:51.150Z,2.60
2018-06-25T06:55:21.589Z,3.12
2018-06-25T06:57:52.201Z,3.12
2018-06-25T07:00:22.589Z,3.42
2018-06-25T07:02:53.135Z,2.75
2018-06-25T07:05:23.636Z,3.17
2018-06-25T07:07:54.170Z,3.65
2018-06-25T07:10:24.744Z,3.65
2018-06-25T07:12:55.263Z,2.75
2018-06-25T07:15:25.775Z,3.40
2018-06-25T07:17:56.303Z,3.55
2018-06-25T07:20:27.137Z,3.50
2018-06-25T07:22:57.631Z,3.90
2018-06-25T07:25:28.175Z,3.60
2018-06-25T07:28:00.334Z,3.80
2018-06-25T07:30:30.793Z,3.90
2018-06-25T07:33:01.486Z,3.60
2018-06-25T07:35:32.451Z,3.72
2018-06-25T07:38:02.573Z,3.35
2018-06-25T07:40:33.877Z,3.45
2018-06-25T07:43:04.356Z,3.62
2018-06-25T07:45:35.012Z,3.50
2018-06-25T07:48:06.403Z,3.60
2018-06-25T07:50:36.934Z,3.15
2018-06-25T07:53:07.468Z,3.60
2018-06-25T07:55:38.927Z,4.05
2018-06-25T07:58:09.471Z,3.00
2018-06-25T08:00:39.985Z,3.80
2018-06-25T08:03:10.668Z,3.62
2018-06-25T08:05:42.291Z,3.80
2018-06-25T08:08:12.902Z,3.52
2018-06-25T08:10:43.478Z,3.83
2018-06-25T08:13:14.025Z,3.55
2018-06-25T08:15:44.503Z,3.80
2018-06-25T08:18:15.023Z,4.20
2018-06-25T08:20:45.432Z,3.40
2018-06-25T08:23:15.979Z,3.55
2018-06-25T08:25:46.699Z,3.52
2018-06-25T08:28:17.484Z,3.87
2018-06-25T08:30:47.970Z,3.75
2018-06-25T08:33:18.487Z,4.33
2018-06-25T08:35:49.659Z,4.28
2018-06-25T08:38:19.790Z,3.85
2018-06-25T08:40:50.340Z,3.70
2018-06-25T08:43:20.948Z,3.20
2018-06-25T08:45:51.421Z,3.35
2018-06-25T08:48:21.945Z,3.10
2018-06-25T08:50:52.468Z,3.35
2018-06-25T08:53:22.952Z,3.12
2018-06-25T08:55:53.651Z,3.05
2018-06-25T08:58:24.456Z,3.27
2018-06-25T09:00:55.580Z,2.87
2018-06-25T09:03:25.775Z,3.25
2018-06-25T09:06:12.158Z,2.80
2018-06-25T09:08:45.246Z,2.70
2018-06-25T09:11:18.430Z,2.47
2018-06-25T09:13:51.312Z,2.42
2018-06-25T09:16:21.857Z,2.62
2018-06-25T09:18:56.549Z,3.12
2018-06-25T09:21:27.041Z,3.00
2018-06-25T09:23:57.528Z,2.75
2018-06-25T09:26:28.094Z,3.27
2018-06-25T09:28:58.696Z,2.80
2018-06-25T09:31:29.225Z,3.17
2018-06-25T09:33:59.716Z,2.42
2018-06-25T09:36:30.256Z,2.50
2018-06-25T09:39:00.716Z,2.47
2018-06-25T09:41:31.326Z,2.22
2018-06-25T09:44:02.221Z,2.30
2018-06-25T09:46:32.653Z,2.27
2018-06-25T09:49:03.102Z,3.02
2018-06-25T09:51:33.638Z,3.20
2018-06-25T09:54:04.076Z,3.47
2018-06-25T09:56:34.546Z,2.62
2018-06-25T09:59:05.103Z,2.50
2018-06-25T10:01:36.502Z,2.58
2018-06-25T10:04:07.796Z,2.70
2018-06-25T10:06:38.299Z,2.40
2018-06-25T10:09:12.405Z,2.17
2018-06-25T10:11:43.023Z,2.10
2018-06-25T10:14:13.579Z,2.02
2018-06-25T10:16:44.221Z,2.58
2018-06-25T10:19:15.484Z,2.30
2018-06-25T10:21:46.006Z,2.05
2018-06-25T10:24:16.950Z,2.40
2018-06-25T10:26:47.493Z,2.12
2018-06-25T10:29:19.687Z,2.20
2018-06-25T10:31:53.236Z,1.95
2018-06-25T10:34:23.966Z,2.30
2018-06-25T10:36:57.170Z,1.75
2018-06-25T10:39:32.145Z,1.72
2018-06-25T10:42:05.469Z,1.87
2018-06-25T10:44:35.911Z,1.57
2018-06-25T10:47:06.316Z,1.50
2018-06-25T10:49:37.554Z,1.30
2018-06-25T10:52:08.234Z,1.52
2018-06-25T10:54:38.952Z,1.20
2018-06-25T10:57:09.464Z,1.40
2018-06-25T10:59:40.194Z,1.20
2018-06-25T11:02:12.469Z,1.70
2018-06-25T11:04:43.172Z,1.50
2018-06-25T11:07:14.959Z,1.95
2018-06-25T11:09:45.538Z,1.40
2018-06-25T11:12:28.051Z,1.32
2018-06-25T11:14:58.586Z,1.70
2018-06-25T11:17:29.064Z,1.75
2018-06-25T11:20:00.155Z,1.60
2018-06-25T11:22:30.584Z,1.30
2018-06-25T11:25:01.039Z,1.80
2018-06-25T11:27:31.713Z,1.42
2018-06-25T11:30:01.961Z,1.70
2018-06-25T11:32:33.068Z,1.40
2018-06-25T11:35:03.589Z,1.20
2018-06-25T11:37:34.118Z,1.80
2018-06-25T11:40:04.702Z,1.35
2018-06-25T11:42:35.228Z,1.20
2018-06-25T11:45:06.093Z,1.50
2018-06-25T11:47:36.585Z,1.60
2018-06-25T11:50:07.196Z,1.40
2018-06-25T11:52:37.705Z,1.70
2018-06-25T11:55:08.162Z,1.72
2018-06-25T11:57:38.670Z,2.17
2018-06-25T12:00:13.273Z,1.70
2018-06-25T12:02:43.907Z,1.40
2018-06-25T12:05:14.305Z,1.62
2018-06-25T12:07:44.921Z,1.70
2018-06-25T12:10:15.434Z,1.60
2018-06-25T12:12:45.853Z,1.80
2018-06-25T12:15:16.423Z,1.77
2018-06-25T12:17:46.938Z,1.50
2018-06-25T12:20:17.530Z,1.70
2018-06-25T12:22:48.031Z,1.40
2018-06-25T12:25:18.485Z,2.00
2018-06-25T12:27:48.987Z,1.80
2018-06-25T12:30:19.526Z,1.50
2018-06-25T12:32:50.036Z,1.40
2018-06-25T12:35:20.500Z,1.60
2018-06-25T12:37:51.074Z,1.55
2018-06-25T12:40:21.597Z,1.75
2018-06-25T12:42:52.198Z,1.72
2018-06-25T12:45:22.978Z,2.08
2018-06-25T12:47:53.453Z,1.90
2018-06-25T12:50:24.052Z,2.20
2018-06-25T12:52:54.609Z,1.80
2018-06-25T12:55:25.142Z,2.17
2018-06-25T12:57:55.676Z,1.70
2018-06-25T13:00:26.270Z,2.00
2018-06-25T13:02:56.705Z,2.40
2018-06-25T13:05:27.394Z,1.92
2018-06-25T13:07:57.891Z,2.35
2018-06-25T13:10:28.461Z,2.37
2018-06-25T13:13:06.314Z,2.20
2018-06-25T13:15:40.836Z,2.80
2018-06-25T13:18:18.525Z,2.62
2018-06-25T13:20:52.312Z,1.87
2018-06-25T13:23:30.475Z,2.30
2018-06-25T13:29:05.556Z,1.70
2018-06-25T13:31:42.846Z,1.80
2018-06-25T13:34:23.184Z,2.08
2018-06-25T13:36:58.123Z,2.25
2018-06-25T13:39:39.233Z,2.42
2018-06-25T13:42:27.235Z,2.52
2018-06-25T13:44:58.833Z,2.00
2018-06-25T13:47:29.357Z,1.92
2018-06-25T13:49:59.782Z,2.70
2018-06-25T13:52:30.312Z,2.25
2018-06-25T13:55:00.763Z,2.27
2018-06-25T13:57:31.258Z,2.00
2018-06-25T14:00:01.961Z,2.10
2018-06-25T14:02:32.702Z,2.15
2018-06-25T14:05:02.906Z,2.00
2018-06-25T14:07:33.410Z,1.90
2018-06-25T14:10:05.369Z,1.72
2018-06-25T14:12:36.994Z,2.33
2018-06-25T14:15:08.351Z,2.12
2018-06-25T14:17:43.701Z,2.10
2018-06-25T14:20:21.141Z,2.40
2018-06-25T14:23:06.708Z,2.40
2018-06-25T14:25:52.030Z,2.33
2018-06-25T14:28:40.461Z,2.33
2018-06-25T14:31:31.949Z,2.20
2018-06-25T14:34:17.851Z,1.95
2018-06-25T14:36:50.936Z,2.22
2018-06-25T14:39:28.117Z,2.10
2018-06-25T14:42:00.549Z,2.40
2018-06-25T14:44:32.315Z,2.30
2018-06-25T14:47:04.210Z,2.20
2018-06-25T14:49:36.507Z,1.95
2018-06-25T14:52:06.987Z,1.90
2018-06-25T14:54:49.800Z,2.30
2018-06-25T14:57:21.361Z,2.00
2018-06-25T15:00:04.376Z,2.25
2018-06-25T15:02:40.064Z,2.55
2018-06-25T15:05:18.645Z,1.90
2018-06-25T15:07:50.187Z,2.15
2018-06-25T15:10:21.272Z,2.00
2018-06-25T15:12:58.832Z,2.20
2018-06-25T15:15:34.136Z,2.15
2018-06-25T15:18:22.812Z,2.40
2018-06-25T15:24:04.778Z,2.40
2018-06-25T15:26:47.945Z,2.00
2018-06-25T15:29:30.369Z,2.47
2018-06-25T15:32:23.101Z,2.17
2018-06-25T15:35:01.034Z,2.62
2018-06-25T15:37:41.237Z,1.98
2018-06-25T15:40:15.438Z,2.30
2018-06-25T15:42:47.097Z,2.30
2018-06-25T15:45:18.618Z,2.35
2018-06-25T15:47:50.191Z,1.90
2018-06-25T15:50:20.802Z,1.90
2018-06-25T15:52:51.286Z,1.90
2018-06-25T15:55:21.806Z,1.95
2018-06-25T15:57:53.535Z,2.20
2018-06-25T16:00:24.980Z,2.08
2018-06-25T16:03:08.399Z,2.30
2018-06-25T16:06:08.557Z,1.77
2018-06-25T16:08:49.252Z,2.05
2018-06-25T16:11:44.205Z,1.70
2018-06-25T16:14:29.808Z,2.10
2018-06-25T16:17:27.126Z,5.87
2018-06-25T16:20:29.668Z,1.85
2018-06-25T16:36:06.931Z,2.50
2018-06-25T16:39:09.587Z,2.40
2018-06-25T16:42:20.517Z,1.95
2018-06-25T16:45:46.474Z,1.77
2018-06-25T16:48:44.098Z,2.25
2018-06-25T16:51:53.929Z,1.95
2018-06-25T17:02:49.790Z,1.90
2018-06-25T17:05:48.969Z,1.60
2018-06-25T17:08:43.603Z,2.10
2018-06-25T17:11:27.687Z,2.10
2018-06-25T17:14:16.132Z,1.98
2018-06-25T17:17:08.684Z,2.00
2018-06-25T17:23:23.938Z,1.80
2018-06-25T17:26:18.067Z,1.60
2018-06-25T17:29:12.982Z,2.20
2018-06-25T17:31:59.239Z,1.90
2018-06-25T17:34:45.429Z,2.37
2018-06-25T17:37:26.773Z,1.92
2018-06-25T17:40:05.665Z,1.90
2018-06-25T17:42:41.302Z,1.90
2018-06-25T17:45:14.084Z,2.17
2018-06-25T17:47:53.692Z,2.40
2018-06-25T17:50:30.524Z,2.30
2018-06-25T17:53:09.919Z,2.05
2018-06-25T17:55:44.959Z,2.40
2018-06-25T17:58:26.202Z,1.82
2018-06-25T18:01:00.588Z,1.85
2018-06-25T18:03:38.451Z,2.33
2018-06-25T18:06:11.885Z,2.30
2018-06-25T18:08:44.249Z,2.00
2018-06-25T18:11:18.198Z,2.45
2018-06-25T18:13:57.409Z,2.20
2018-06-25T18:16:29.832Z,2.15
2018-06-25T18:19:09.373Z,2.10
2018-06-25T18:21:49.165Z,1.87
2018-06-25T18:24:27.536Z,1.92
2018-06-25T18:27:04.193Z,2.67
2018-06-25T18:29:39.809Z,2.40
2018-06-25T18:32:14.387Z,2.17
2018-06-25T18:34:44.931Z,2.12
2018-06-25T18:37:15.398Z,2.05
2018-06-25T18:39:45.810Z,2.20
2018-06-25T18:42:16.276Z,2.05
2018-06-25T18:44:46.762Z,2.50
2018-06-25T18:47:17.164Z,2.02
2018-06-25T18:49:47.636Z,2.25
2018-06-25T18:52:18.057Z,2.50
2018-06-25T18:54:48.530Z,2.62
2018-06-25T18:57:19.008Z,2.70
2018-06-25T18:59:49.413Z,2.50
2018-06-25T19:02:20.069Z,2.98
2018-06-25T19:04:50.518Z,2.22
2018-06-25T19:07:20.978Z,2.47
2018-06-25T19:09:51.429Z,2.50
2018-06-25T19:12:21.832Z,2.45
2018-06-25T19:14:52.625Z,2.67
2018-06-25T19:17:23.113Z,2.87
2018-06-25T19:20:07.053Z,2.70
2018-06-25T19:22:51.342Z,2.55
2018-06-25T19:25:32.035Z,2.25
2018-06-25T19:28:08.611Z,2.72
2018-06-25T19:30:47.817Z,2.50
2018-06-25T19:33:27.879Z,2.08
2018-06-25T19:36:08.852Z,2.20
2018-06-25T19:38:41.907Z,2.27
2018-06-25T19:41:15.920Z,2.55
2018-06-25T19:43:46.404Z,2.55
2018-06-25T19:46:17.726Z,2.33
2018-06-25T19:48:48.117Z,1.95
2018-06-25T19:51:18.628Z,2.80
2018-06-25T19:53:51.839Z,2.65
2018-06-25T19:56:23.477Z,2.50
2018-06-25T19:58:55.392Z,3.20
2018-06-25T20:01:27.777Z,2.70
2018-06-25T20:04:00.413Z,3.02
2018-06-25T20:09:26.557Z,2.90
2018-06-25T20:12:02.784Z,2.35
2018-06-25T20:17:34.134Z,2.62
2018-06-25T20:20:11.352Z,2.72
2018-06-25T20:22:46.752Z,2.90
2018-06-25T20:25:31.098Z,2.58
2018-06-25T20:28:16.554Z,2.75
2018-06-25T20:33:49.562Z,2.90
2018-06-25T20:36:38.779Z,2.80
2018-06-25T20:39:20.832Z,2.90
2018-06-25T20:42:00.817Z,3.02
2018-06-25T20:44:44.886Z,2.87
2018-06-25T20:47:27.894Z,2.52
2018-06-25T20:50:02.743Z,3.05
2018-06-25T20:52:43.704Z,2.80
2018-06-25T20:58:15.288Z,2.25
2018-06-25T21:00:57.497Z,3.05
2018-06-25T21:03:42.763Z,2.60
2018-06-25T21:06:23.979Z,2.20
2018-06-25T21:09:13.850Z,3.05
2018-06-25T21:11:56.958Z,2.65
2018-06-25T21:14:39.136Z,2.10
2018-06-25T21:17:14.363Z,2.45
2018-06-25T21:19:51.773Z,2.77
2018-06-25T21:22:43.379Z,2.70
2018-06-25T21:25:24.651Z,2.37
2018-06-25T21:28:09.012Z,2.37
2018-06-25T21:30:55.096Z,2.30
2018-06-25T21:33:37.859Z,2.70
2018-06-25T21:36:28.554Z,2.58
2018-06-25T21:39:21.098Z,2.80
2018-06-25T21:42:01.937Z,2.90
2018-06-25T21:44:47.847Z,3.20
2018-06-25T21:47:31.974Z,3.12
2018-06-25T21:50:15.251Z,3.25
2018-06-25T21:53:01.394Z,2.30
2018-06-25T21:55:41.335Z,2.55
2018-06-25T21:58:26.141Z,2.60
2018-06-25T22:01:34.470Z,2.55
2018-06-25T22:04:14.221Z,3.58
2018-06-25T22:06:51.645Z,3.25
2018-06-25T22:09:28.931Z,2.70
2018-06-25T22:12:14.258Z,2.90
2018-06-25T22:14:51.092Z,3.12
2018-06-25T22:17:32.538Z,3.02
2018-06-25T22:20:08.160Z,3.05
2018-06-25T22:22:53.767Z,2.92
2018-06-25T22:28:20.831Z,2.83
2018-06-25T22:30:56.476Z,3.02
2018-06-25T22:33:39.808Z,3.02
2018-06-25T22:36:23.109Z,2.50
2018-06-25T22:39:05.001Z,3.05
2018-06-25T22:44:18.762Z,3.37
2018-06-25T22:46:57.393Z,3.27
2018-06-25T22:49:36.740Z,3.05
2018-06-25T22:52:14.924Z,2.92
2018-06-25T22:55:01.222Z,3.35
2018-06-25T22:57:40.978Z,2.85
2018-06-25T23:00:21.908Z,2.90
2018-06-25T23:03:01.171Z,3.20
2018-06-25T23:05:42.371Z,3.40
2018-06-25T23:08:20.253Z,3.33
2018-06-25T23:11:04.027Z,2.67
2018-06-25T23:13:42.510Z,3.30
2018-06-25T23:16:27.706Z,2.98
2018-06-25T23:19:08.119Z,2.80
2018-06-25T23:21:47.645Z,2.80
2018-06-25T23:24:36.283Z,2.65
2018-06-25T23:27:13.214Z,3.08
2018-06-25T23:30:01.387Z,3.25
2018-06-25T23:32:53.510Z,2.60
2018-06-25T23:35:28.480Z,2.90
2018-06-25T23:38:06.219Z,2.80
2018-06-25T23:40:45.614Z,2.90
2018-06-25T23:43:24.231Z,3.00
2018-06-25T23:46:09.566Z,2.85
2018-06-25T23:49:01.971Z,3.35
2018-06-25T23:51:44.184Z,2.72
2018-06-25T23:56:59.758Z,3.35
2018-06-25T23:59:40.714Z,3.00
